Meath Environmental Platform

Observations for Trim Patrick St

Time AQI Temp °C Hum % Pres Pa CO μg/m³ H₂S μg/m³ NO μg/m³ NO₂ μg/m³ O₃ μg/m³ SO₂ μg/m³ PM1 μg/m³ PM2.5 μg/m³ PM10 μg/m³
Sunday 2 August 2026
08:26 2 18.8 64 88,140 0.22 0 3.18 14.98 35.34 0.86 4.57 9.9 10.88
08:23 2 18.7 65 88,705 0.24 0 3.14 11.96 34.37 1.12 6.29 12.07 13.28
08:22 2 18.6 65 89,201 0.24 0 2.57 13.86 33.44 1.3 6.29 10.59 11.65
08:21 2 18.6 65 89,708 0.25 0 2.04 15.38 34.11 0.84 4.57 9.88 10.87
08:20 2 18.6 65 90,362 0.25 0 1.69 11.99 34.85 0.89 4.57 9.87 10.86
08:19 2 18.5 65 91,409 0.25 0 1.6 12.56 33.39 0.71 5.43 11.33 12.46
08:18 2 18.5 65 92,556 0.24 0 1.55 12.24 33.44 0.6 6.29 12.08 13.28
08:17 2 18.4 65 94,081 0.26 0 1.4 11.93 34.18 0.48 7.14 10.58 11.64
08:13 2 18.2 66 97,350 0.29 0 2.15 16.38 31.96 1.16 6.29 13.45 14.79
08:12 2 18.2 66 99,423 0.29 0 2.15 10.96 32.14 0.76 5.43 10.52 11.57
08:11 2 18.2 65 102,149 0.28 0 2.81 14.92 32.44 0.24 7.14 13.49 14.84
08:10 2 18.1 65 105,391 0.29 0 1.94 12.03 32.61 0.73 3.71 9.83 10.81
08:09 2 18 66 106,757 0.29 0 1.63 19.8 32.52 0.76 5.43 11.25 12.37
08:08 2 17.9 66 110,201 0.3 0 1.73 17.07 30.52 0.53 6.29 11.94 13.13
08:06 2 17.8 67 3,461 0.3 0 1.93 13.17 30.41 0.62 4.57 10.43 11.47
08:05 2 17.8 68 7,301 0.3 0 1.66 17.81 30.86 1.3 5.43 11.12 12.23
08:04 2 17.6 68 10,503 0.3 0 2.2 14.51 30.16 0.81 6.29 11.1 12.22
08:03 2 17.6 68 12,742 0.3 0 2.28 18.41 29.2 0.76 6.29 11.82 13
08:02 2 17.5 68 14,363 0.3 0 2.47 22.65 27.94 0.92 6.29 11.08 12.19
08:01 2 17.4 68 16,186 0.31 0 1.92 14.91 29.15 0.32 6.29 11.06 12.16